sensor_id;sensor_type;location;lat;lon;timestamp;P1;durP1;ratioP1;P2;durP2;ratioP2
35907;SDS011;22003;50.320;8.054;2022-09-11T04:01:41;71.90;;;31.02;;
35907;SDS011;22003;50.320;8.054;2022-09-11T04:04:07;67.70;;;31.85;;
35907;SDS011;22003;50.320;8.054;2022-09-11T04:06:32;71.38;;;31.27;;
35907;SDS011;22003;50.320;8.054;2022-09-11T04:08:57;64.63;;;28.67;;
35907;SDS011;22003;50.320;8.054;2022-09-11T04:11:23;63.50;;;28.98;;
35907;SDS011;22003;50.320;8.054;2022-09-11T04:13:48;70.78;;;30.92;;
35907;SDS011;22003;50.320;8.054;2022-09-11T04:16:15;78.75;;;33.13;;
35907;SDS011;22003;50.320;8.054;2022-09-11T04:18:42;80.55;;;33.95;;
35907;SDS011;22003;50.320;8.054;2022-09-11T04:21:11;77.93;;;32.30;;
35907;SDS011;22003;50.320;8.054;2022-09-11T04:23:39;72.55;;;31.40;;
35907;SDS011;22003;50.320;8.054;2022-09-11T04:26:12;73.55;;;31.70;;
35907;SDS011;22003;50.320;8.054;2022-09-11T04:28:39;70.25;;;30.35;;
35907;SDS011;22003;50.320;8.054;2022-09-11T04:31:05;67.97;;;31.13;;
35907;SDS011;22003;50.320;8.054;2022-09-11T04:33:30;65.68;;;29.52;;
35907;SDS011;22003;50.320;8.054;2022-09-11T04:35:56;58.65;;;28.35;;
35907;SDS011;22003;50.320;8.054;2022-09-11T04:38:21;55.08;;;25.80;;
35907;SDS011;22003;50.320;8.054;2022-09-11T04:40:47;57.50;;;27.33;;
35907;SDS011;22003;50.320;8.054;2022-09-11T04:43:13;63.60;;;30.08;;
35907;SDS011;22003;50.320;8.054;2022-09-11T04:48:07;51.05;;;25.23;;
35907;SDS011;22003;50.320;8.054;2022-09-11T04:50:32;57.28;;;26.15;;
35907;SDS011;22003;50.320;8.054;2022-09-11T04:52:57;51.67;;;24.92;;
35907;SDS011;22003;50.320;8.054;2022-09-11T04:55:23;52.03;;;25.45;;
35907;SDS011;22003;50.320;8.054;2022-09-11T04:57:49;53.92;;;24.33;;
35907;SDS011;22003;50.320;8.054;2022-09-11T05:00:14;54.60;;;25.95;;
35907;SDS011;22003;50.320;8.054;2022-09-11T05:02:41;51.58;;;24.52;;
35907;SDS011;22003;50.320;8.054;2022-09-11T05:05:06;51.10;;;25.77;;
35907;SDS011;22003;50.320;8.054;2022-09-11T05:07:33;51.23;;;25.83;;
35907;SDS011;22003;50.320;8.054;2022-09-11T05:09:59;51.13;;;25.42;;
35907;SDS011;22003;50.320;8.054;2022-09-11T05:12:24;75.88;;;30.92;;
35907;SDS011;22003;50.320;8.054;2022-09-11T05:14:50;66.22;;;29.92;;
35907;SDS011;22003;50.320;8.054;2022-09-11T05:17:15;79.20;;;32.83;;
35907;SDS011;22003;50.320;8.054;2022-09-11T05:19:40;55.55;;;26.25;;
35907;SDS011;22003;50.320;8.054;2022-09-11T05:22:06;55.47;;;26.42;;
35907;SDS011;22003;50.320;8.054;2022-09-11T05:24:31;49.78;;;23.60;;
35907;SDS011;22003;50.320;8.054;2022-09-11T05:26:56;50.13;;;24.23;;
35907;SDS011;22003;50.320;8.054;2022-09-11T05:29:25;52.20;;;24.38;;
35907;SDS011;22003;50.320;8.054;2022-09-11T05:31:54;52.38;;;25.17;;
35907;SDS011;22003;50.320;8.054;2022-09-11T05:34:20;55.30;;;26.30;;
35907;SDS011;22003;50.320;8.054;2022-09-11T05:36:46;63.50;;;28.17;;
35907;SDS011;22003;50.320;8.054;2022-09-11T05:39:11;82.35;;;32.65;;
35907;SDS011;22003;50.320;8.054;2022-09-11T05:41:37;101.75;;;36.00;;
35907;SDS011;22003;50.320;8.054;2022-09-11T05:44:02;96.05;;;35.95;;
35907;SDS011;22003;50.320;8.054;2022-09-11T05:46:27;93.70;;;34.53;;
35907;SDS011;22003;50.320;8.054;2022-09-11T05:48:53;89.13;;;34.67;;
35907;SDS011;22003;50.320;8.054;2022-09-11T05:51:18;82.00;;;33.83;;
35907;SDS011;22003;50.320;8.054;2022-09-11T05:53:45;86.50;;;33.17;;
35907;SDS011;22003;50.320;8.054;2022-09-11T05:58:41;83.85;;;34.13;;
35907;SDS011;22003;50.320;8.054;2022-09-11T06:01:11;81.70;;;33.83;;
35907;SDS011;22003;50.320;8.054;2022-09-11T06:03:38;75.13;;;33.53;;
35907;SDS011;22003;50.320;8.054;2022-09-11T06:06:05;76.40;;;32.30;;
35907;SDS011;22003;50.320;8.054;2022-09-11T06:08:32;62.00;;;27.05;;
35907;SDS011;22003;50.320;8.054;2022-09-11T06:10:58;63.45;;;28.98;;
35907;SDS011;22003;50.320;8.054;2022-09-11T06:13:29;55.65;;;27.85;;
35907;SDS011;22003;50.320;8.054;2022-09-11T06:15:58;62.40;;;28.15;;
35907;SDS011;22003;50.320;8.054;2022-09-11T06:18:23;60.00;;;29.08;;
35907;SDS011;22003;50.320;8.054;2022-09-11T06:20:58;60.20;;;28.83;;
35907;SDS011;22003;50.320;8.054;2022-09-11T06:23:31;59.83;;;28.30;;
35907;SDS011;22003;50.320;8.054;2022-09-11T06:26:06;60.08;;;28.27;;
35907;SDS011;22003;50.320;8.054;2022-09-11T06:28:34;60.75;;;28.23;;
35907;SDS011;22003;50.320;8.054;2022-09-11T06:31:00;56.47;;;27.85;;
35907;SDS011;22003;50.320;8.054;2022-09-11T06:33:29;51.95;;;25.65;;
35907;SDS011;22003;50.320;8.054;2022-09-11T06:35:57;53.10;;;26.63;;
35907;SDS011;22003;50.320;8.054;2022-09-11T06:38:24;49.60;;;26.30;;
35907;SDS011;22003;50.320;8.054;2022-09-11T06:40:49;59.28;;;27.85;;
35907;SDS011;22003;50.320;8.054;2022-09-11T06:43:15;51.50;;;25.67;;
35907;SDS011;22003;50.320;8.054;2022-09-11T06:45:41;49.85;;;25.25;;
35907;SDS011;22003;50.320;8.054;2022-09-11T06:48:06;53.83;;;26.02;;
35907;SDS011;22003;50.320;8.054;2022-09-11T06:50:35;57.65;;;27.17;;
35907;SDS011;22003;50.320;8.054;2022-09-11T06:53:04;48.17;;;24.77;;
35907;SDS011;22003;50.320;8.054;2022-09-11T06:55:29;50.28;;;24.85;;
35907;SDS011;22003;50.320;8.054;2022-09-11T06:57:54;47.70;;;25.13;;
35907;SDS011;22003;50.320;8.054;2022-09-11T07:00:20;47.95;;;25.45;;
35907;SDS011;22003;50.320;8.054;2022-09-11T07:02:45;53.58;;;25.98;;
35907;SDS011;22003;50.320;8.054;2022-09-11T07:05:10;55.90;;;26.15;;
35907;SDS011;22003;50.320;8.054;2022-09-11T07:07:36;45.88;;;24.80;;
35907;SDS011;22003;50.320;8.054;2022-09-11T07:10:02;59.50;;;28.00;;
35907;SDS011;22003;50.320;8.054;2022-09-11T07:12:29;49.15;;;25.52;;
35907;SDS011;22003;50.320;8.054;2022-09-11T07:14:55;49.25;;;25.40;;
35907;SDS011;22003;50.320;8.054;2022-09-11T07:17:20;46.60;;;25.05;;
35907;SDS011;22003;50.320;8.054;2022-09-11T07:19:45;53.78;;;27.90;;
35907;SDS011;22003;50.320;8.054;2022-09-11T07:22:10;46.72;;;25.30;;
35907;SDS011;22003;50.320;8.054;2022-09-11T07:24:35;50.72;;;25.88;;
35907;SDS011;22003;50.320;8.054;2022-09-11T07:27:01;47.35;;;24.13;;
35907;SDS011;22003;50.320;8.054;2022-09-11T07:29:26;47.53;;;24.77;;
35907;SDS011;22003;50.320;8.054;2022-09-11T07:31:52;44.20;;;23.88;;
35907;SDS011;22003;50.320;8.054;2022-09-11T07:34:19;43.17;;;22.90;;
35907;SDS011;22003;50.320;8.054;2022-09-11T07:36:45;44.05;;;23.02;;
35907;SDS011;22003;50.320;8.054;2022-09-11T07:39:10;40.22;;;23.08;;
35907;SDS011;22003;50.320;8.054;2022-09-11T07:41:35;40.47;;;22.13;;
35907;SDS011;22003;50.320;8.054;2022-09-11T07:44:00;39.67;;;21.08;;
35907;SDS011;22003;50.320;8.054;2022-09-11T07:46:27;37.07;;;20.20;;
35907;SDS011;22003;50.320;8.054;2022-09-11T07:48:55;35.00;;;20.52;;
35907;SDS011;22003;50.320;8.054;2022-09-11T07:51:20;36.00;;;20.15;;
35907;SDS011;22003;50.320;8.054;2022-09-11T07:53:47;35.45;;;19.02;;
35907;SDS011;22003;50.320;8.054;2022-09-11T07:56:15;31.17;;;17.92;;
35907;SDS011;22003;50.320;8.054;2022-09-11T08:01:13;29.05;;;16.08;;
35907;SDS011;22003;50.320;8.054;2022-09-11T08:03:40;29.98;;;17.33;;
35907;SDS011;22003;50.320;8.054;2022-09-11T08:06:07;26.60;;;16.10;;
35907;SDS011;22003;50.320;8.054;2022-09-11T08:08:38;33.33;;;16.52;;
35907;SDS011;22003;50.320;8.054;2022-09-11T08:11:14;31.17;;;18.05;;
35907;SDS011;22003;50.320;8.054;2022-09-11T08:13:41;35.17;;;18.92;;
35907;SDS011;22003;50.320;8.054;2022-09-11T08:16:07;35.10;;;17.13;;
35907;SDS011;22003;50.320;8.054;2022-09-11T08:18:33;34.83;;;18.25;;
35907;SDS011;22003;50.320;8.054;2022-09-11T08:21:02;37.00;;;19.67;;
35907;SDS011;22003;50.320;8.054;2022-09-11T08:23:31;37.25;;;19.45;;
35907;SDS011;22003;50.320;8.054;2022-09-11T08:26:03;37.80;;;18.85;;
35907;SDS011;22003;50.320;8.054;2022-09-11T08:28:29;33.13;;;17.27;;
35907;SDS011;22003;50.320;8.054;2022-09-11T08:30:55;30.42;;;16.50;;
35907;SDS011;22003;50.320;8.054;2022-09-11T08:33:22;34.05;;;18.23;;
35907;SDS011;22003;50.320;8.054;2022-09-11T08:35:48;29.98;;;16.52;;
35907;SDS011;22003;50.320;8.054;2022-09-11T08:38:13;33.17;;;17.33;;
35907;SDS011;22003;50.320;8.054;2022-09-11T08:40:38;30.65;;;17.10;;
35907;SDS011;22003;50.320;8.054;2022-09-11T08:43:04;35.55;;;18.27;;
35907;SDS011;22003;50.320;8.054;2022-09-11T08:45:32;38.08;;;19.30;;
35907;SDS011;22003;50.320;8.054;2022-09-11T08:47:59;35.47;;;17.25;;
35907;SDS011;22003;50.320;8.054;2022-09-11T08:50:37;34.20;;;18.05;;
35907;SDS011;22003;50.320;8.054;2022-09-11T08:53:04;31.02;;;17.45;;
35907;SDS011;22003;50.320;8.054;2022-09-11T08:55:36;32.25;;;18.00;;
35907;SDS011;22003;50.320;8.054;2022-09-11T09:00:38;33.22;;;16.50;;
35907;SDS011;22003;50.320;8.054;2022-09-11T09:05:54;28.40;;;16.02;;
35907;SDS011;22003;50.320;8.054;2022-09-11T09:17:19;28.02;;;15.75;;
35907;SDS011;22003;50.320;8.054;2022-09-11T09:20:08;28.50;;;14.98;;
35907;SDS011;22003;50.320;8.054;2022-09-11T09:25:35;28.60;;;16.10;;
35907;SDS011;22003;50.320;8.054;2022-09-11T09:30:52;29.05;;;14.88;;
35907;SDS011;22003;50.320;8.054;2022-09-11T09:35:49;27.75;;;16.15;;
35907;SDS011;22003;50.320;8.054;2022-09-11T09:38:15;25.42;;;14.95;;
35907;SDS011;22003;50.320;8.054;2022-09-11T09:41:46;28.17;;;14.23;;
35907;SDS011;22003;50.320;8.054;2022-09-11T09:43:58;23.83;;;12.55;;
35907;SDS011;22003;50.320;8.054;2022-09-11T09:46:42;20.80;;;12.75;;
35907;SDS011;22003;50.320;8.054;2022-09-11T09:49:10;23.17;;;13.38;;
35907;SDS011;22003;50.320;8.054;2022-09-11T09:51:42;26.27;;;13.98;;
35907;SDS011;22003;50.320;8.054;2022-09-11T09:54:09;23.67;;;13.75;;
35907;SDS011;22003;50.320;8.054;2022-09-11T09:56:40;28.13;;;13.90;;
35907;SDS011;22003;50.320;8.054;2022-09-11T10:01:49;27.60;;;15.43;;
35907;SDS011;22003;50.320;8.054;2022-09-11T10:04:17;28.40;;;14.48;;
35907;SDS011;22003;50.320;8.054;2022-09-11T10:06:50;24.75;;;14.40;;
35907;SDS011;22003;50.320;8.054;2022-09-11T10:11:55;26.05;;;15.10;;
35907;SDS011;22003;50.320;8.054;2022-09-11T10:14:26;26.75;;;14.50;;
35907;SDS011;22003;50.320;8.054;2022-09-11T10:16:53;27.83;;;15.73;;
35907;SDS011;22003;50.320;8.054;2022-09-11T10:19:35;23.27;;;13.63;;
35907;SDS011;22003;50.320;8.054;2022-09-11T10:25:07;23.08;;;13.35;;
35907;SDS011;22003;50.320;8.054;2022-09-11T10:27:46;23.93;;;14.23;;
35907;SDS011;22003;50.320;8.054;2022-09-11T10:30:30;23.58;;;14.00;;
35907;SDS011;22003;50.320;8.054;2022-09-11T10:32:58;24.08;;;13.77;;
35907;SDS011;22003;50.320;8.054;2022-09-11T10:35:26;24.20;;;13.45;;
35907;SDS011;22003;50.320;8.054;2022-09-11T10:40:36;23.65;;;13.68;;
35907;SDS011;22003;50.320;8.054;2022-09-11T10:43:04;22.92;;;13.13;;
35907;SDS011;22003;50.320;8.054;2022-09-11T10:45:32;22.83;;;12.43;;
35907;SDS011;22003;50.320;8.054;2022-09-11T10:48:12;22.60;;;12.82;;
35907;SDS011;22003;50.320;8.054;2022-09-11T10:50:39;25.70;;;12.80;;
35907;SDS011;22003;50.320;8.054;2022-09-11T10:55:44;23.25;;;12.65;;
35907;SDS011;22003;50.320;8.054;2022-09-11T10:58:16;23.50;;;11.80;;
35907;SDS011;22003;50.320;8.054;2022-09-11T11:00:46;21.65;;;11.98;;
35907;SDS011;22003;50.320;8.054;2022-09-11T11:03:17;21.13;;;11.65;;
35907;SDS011;22003;50.320;8.054;2022-09-11T11:11:28;20.42;;;12.02;;
35907;SDS011;22003;50.320;8.054;2022-09-11T11:14:25;22.67;;;11.13;;
35907;SDS011;22003;50.320;8.054;2022-09-11T11:17:02;18.25;;;10.82;;
35907;SDS011;22003;50.320;8.054;2022-09-11T11:30:57;17.48;;;10.63;;
35907;SDS011;22003;50.320;8.054;2022-09-11T11:39:25;13.90;;;9.02;;
35907;SDS011;22003;50.320;8.054;2022-09-11T11:41:59;16.75;;;11.45;;
35907;SDS011;22003;50.320;8.054;2022-09-11T11:44:44;15.55;;;10.02;;
35907;SDS011;22003;50.320;8.054;2022-09-11T11:47:15;16.27;;;9.43;;
35907;SDS011;22003;50.320;8.054;2022-09-11T11:57:41;17.25;;;9.90;;
35907;SDS011;22003;50.320;8.054;2022-09-11T12:00:13;16.92;;;9.43;;
35907;SDS011;22003;50.320;8.054;2022-09-11T12:05:12;14.30;;;9.20;;
35907;SDS011;22003;50.320;8.054;2022-09-11T12:07:41;17.15;;;9.65;;
35907;SDS011;22003;50.320;8.054;2022-09-11T12:10:17;16.65;;;9.95;;
35907;SDS011;22003;50.320;8.054;2022-09-11T12:12:46;15.25;;;8.98;;
35907;SDS011;22003;50.320;8.054;2022-09-11T12:15:18;15.00;;;8.75;;
35907;SDS011;22003;50.320;8.054;2022-09-11T12:18:02;13.77;;;8.25;;
35907;SDS011;22003;50.320;8.054;2022-09-11T12:20:33;13.98;;;7.43;;
35907;SDS011;22003;50.320;8.054;2022-09-11T12:23:06;13.50;;;7.55;;
35907;SDS011;22003;50.320;8.054;2022-09-11T12:28:33;14.27;;;7.75;;
35907;SDS011;22003;50.320;8.054;2022-09-11T12:31:06;14.65;;;8.52;;
35907;SDS011;22003;50.320;8.054;2022-09-11T12:36:12;12.88;;;7.82;;
35907;SDS011;22003;50.320;8.054;2022-09-11T12:41:45;17.27;;;8.50;;
35907;SDS011;22003;50.320;8.054;2022-09-11T12:44:27;14.88;;;8.85;;
35907;SDS011;22003;50.320;8.054;2022-09-11T12:49:23;17.25;;;8.70;;
35907;SDS011;22003;50.320;8.054;2022-09-11T12:51:55;15.93;;;8.13;;
35907;SDS011;22003;50.320;8.054;2022-09-11T12:54:31;13.95;;;7.68;;
35907;SDS011;22003;50.320;8.054;2022-09-11T12:57:07;17.13;;;9.32;;
35907;SDS011;22003;50.320;8.054;2022-09-11T12:59:43;14.98;;;8.35;;
35907;SDS011;22003;50.320;8.054;2022-09-11T13:02:23;12.23;;;8.13;;
35907;SDS011;22003;50.320;8.054;2022-09-11T13:04:52;12.48;;;7.80;;
35907;SDS011;22003;50.320;8.054;2022-09-11T13:07:23;10.80;;;6.80;;
35907;SDS011;22003;50.320;8.054;2022-09-11T13:10:02;14.38;;;6.55;;
35907;SDS011;22003;50.320;8.054;2022-09-11T13:12:51;11.48;;;6.93;;
35907;SDS011;22003;50.320;8.054;2022-09-11T13:15:51;10.32;;;6.57;;
35907;SDS011;22003;50.320;8.054;2022-09-11T13:20:58;15.00;;;7.88;;
35907;SDS011;22003;50.320;8.054;2022-09-11T13:23:26;13.77;;;7.70;;
35907;SDS011;22003;50.320;8.054;2022-09-11T13:25:53;13.80;;;7.83;;
35907;SDS011;22003;50.320;8.054;2022-09-11T13:28:20;14.25;;;8.40;;
35907;SDS011;22003;50.320;8.054;2022-09-11T13:30:56;13.13;;;8.02;;
35907;SDS011;22003;50.320;8.054;2022-09-11T13:33:24;12.77;;;7.35;;
35907;SDS011;22003;50.320;8.054;2022-09-11T13:35:55;12.18;;;7.68;;
35907;SDS011;22003;50.320;8.054;2022-09-11T13:38:22;15.05;;;7.88;;
35907;SDS011;22003;50.320;8.054;2022-09-11T13:40:54;10.48;;;6.72;;
35907;SDS011;22003;50.320;8.054;2022-09-11T13:43:27;12.00;;;7.20;;
35907;SDS011;22003;50.320;8.054;2022-09-11T13:46:09;12.52;;;6.40;;
35907;SDS011;22003;50.320;8.054;2022-09-11T13:51:03;9.70;;;6.13;;
35907;SDS011;22003;50.320;8.054;2022-09-11T13:53:30;12.40;;;7.63;;
35907;SDS011;22003;50.320;8.054;2022-09-11T13:55:57;13.88;;;7.43;;
35907;SDS011;22003;50.320;8.054;2022-09-11T13:58:27;12.95;;;6.80;;
35907;SDS011;22003;50.320;8.054;2022-09-11T14:01:09;12.82;;;7.03;;
35907;SDS011;22003;50.320;8.054;2022-09-11T14:03:35;9.18;;;5.95;;
35907;SDS011;22003;50.320;8.054;2022-09-11T14:06:10;9.27;;;6.15;;
35907;SDS011;22003;50.320;8.054;2022-09-11T14:08:47;9.93;;;5.68;;
35907;SDS011;22003;50.320;8.054;2022-09-11T14:11:22;12.55;;;6.72;;
35907;SDS011;22003;50.320;8.054;2022-09-11T14:13:51;13.10;;;6.82;;
35907;SDS011;22003;50.320;8.054;2022-09-11T14:16:31;11.80;;;7.47;;
35907;SDS011;22003;50.320;8.054;2022-09-11T14:19:00;10.73;;;6.90;;
35907;SDS011;22003;50.320;8.054;2022-09-11T14:21:37;10.05;;;7.10;;
35907;SDS011;22003;50.320;8.054;2022-09-11T14:24:23;10.98;;;6.57;;
35907;SDS011;22003;50.320;8.054;2022-09-11T14:26:51;9.77;;;6.40;;
35907;SDS011;22003;50.320;8.054;2022-09-11T14:29:25;11.27;;;6.78;;
35907;SDS011;22003;50.320;8.054;2022-09-11T14:31:52;11.35;;;6.65;;
35907;SDS011;22003;50.320;8.054;2022-09-11T14:34:25;7.70;;;5.60;;
35907;SDS011;22003;50.320;8.054;2022-09-11T14:37:02;12.13;;;6.25;;
35907;SDS011;22003;50.320;8.054;2022-09-11T14:42:05;12.05;;;6.57;;
35907;SDS011;22003;50.320;8.054;2022-09-11T14:44:32;10.32;;;6.68;;
35907;SDS011;22003;50.320;8.054;2022-09-11T14:46:59;11.30;;;6.32;;
35907;SDS011;22003;50.320;8.054;2022-09-11T14:49:24;11.48;;;6.82;;
35907;SDS011;22003;50.320;8.054;2022-09-11T14:51:54;12.50;;;6.50;;
35907;SDS011;22003;50.320;8.054;2022-09-11T14:54:24;10.82;;;6.40;;
35907;SDS011;22003;50.320;8.054;2022-09-11T14:56:51;8.98;;;6.05;;
35907;SDS011;22003;50.320;8.054;2022-09-11T14:59:16;9.98;;;6.22;;
35907;SDS011;22003;50.320;8.054;2022-09-11T15:01:43;11.07;;;6.93;;
35907;SDS011;22003;50.320;8.054;2022-09-11T15:04:16;12.50;;;7.45;;
35907;SDS011;22003;50.320;8.054;2022-09-11T15:06:44;10.75;;;6.65;;
35907;SDS011;22003;50.320;8.054;2022-09-11T15:09:12;10.75;;;6.78;;
35907;SDS011;22003;50.320;8.054;2022-09-11T15:11:38;9.85;;;6.45;;
35907;SDS011;22003;50.320;8.054;2022-09-11T15:14:05;12.50;;;6.78;;
35907;SDS011;22003;50.320;8.054;2022-09-11T15:16:32;12.85;;;6.82;;
35907;SDS011;22003;50.320;8.054;2022-09-11T15:18:57;11.70;;;6.53;;
35907;SDS011;22003;50.320;8.054;2022-09-11T15:21:22;9.38;;;6.55;;
35907;SDS011;22003;50.320;8.054;2022-09-11T15:23:48;9.75;;;6.93;;
35907;SDS011;22003;50.320;8.054;2022-09-11T15:26:14;11.77;;;6.22;;
35907;SDS011;22003;50.320;8.054;2022-09-11T15:28:39;9.98;;;6.20;;
35907;SDS011;22003;50.320;8.054;2022-09-11T15:31:05;10.63;;;6.35;;
35907;SDS011;22003;50.320;8.054;2022-09-11T15:33:30;8.40;;;5.78;;
35907;SDS011;22003;50.320;8.054;2022-09-11T15:36:00;7.65;;;6.15;;
35907;SDS011;22003;50.320;8.054;2022-09-11T15:38:27;10.40;;;6.93;;
35907;SDS011;22003;50.320;8.054;2022-09-11T15:40:53;9.27;;;6.18;;
35907;SDS011;22003;50.320;8.054;2022-09-11T15:43:22;8.77;;;5.97;;
35907;SDS011;22003;50.320;8.054;2022-09-11T15:45:48;7.60;;;5.40;;
35907;SDS011;22003;50.320;8.054;2022-09-11T15:48:14;12.02;;;6.55;;
35907;SDS011;22003;50.320;8.054;2022-09-11T15:50:41;7.43;;;5.40;;
35907;SDS011;22003;50.320;8.054;2022-09-11T15:53:07;9.43;;;7.03;;
35907;SDS011;22003;50.320;8.054;2022-09-11T15:55:34;8.25;;;6.65;;
35907;SDS011;22003;50.320;8.054;2022-09-11T15:58:00;9.35;;;7.30;;
35907;SDS011;22003;50.320;8.054;2022-09-11T16:00:25;10.40;;;7.75;;
35907;SDS011;22003;50.320;8.054;2022-09-11T16:02:51;9.50;;;6.20;;
35907;SDS011;22003;50.320;8.054;2022-09-11T16:05:17;10.43;;;7.00;;
35907;SDS011;22003;50.320;8.054;2022-09-11T16:07:42;10.90;;;6.78;;
35907;SDS011;22003;50.320;8.054;2022-09-11T16:10:08;12.07;;;7.22;;
35907;SDS011;22003;50.320;8.054;2022-09-11T16:12:34;10.45;;;7.50;;
35907;SDS011;22003;50.320;8.054;2022-09-11T16:14:59;11.32;;;6.78;;
35907;SDS011;22003;50.320;8.054;2022-09-11T16:17:25;11.38;;;6.85;;
35907;SDS011;22003;50.320;8.054;2022-09-11T16:19:55;10.15;;;6.88;;
35907;SDS011;22003;50.320;8.054;2022-09-11T16:22:21;11.10;;;7.15;;
35907;SDS011;22003;50.320;8.054;2022-09-11T16:24:49;10.60;;;7.07;;
35907;SDS011;22003;50.320;8.054;2022-09-11T16:27:14;10.57;;;6.90;;
35907;SDS011;22003;50.320;8.054;2022-09-11T16:29:40;15.00;;;7.10;;
35907;SDS011;22003;50.320;8.054;2022-09-11T16:32:05;10.75;;;7.25;;
35907;SDS011;22003;50.320;8.054;2022-09-11T16:34:31;10.40;;;7.40;;
35907;SDS011;22003;50.320;8.054;2022-09-11T16:36:57;10.15;;;7.30;;
35907;SDS011;22003;50.320;8.054;2022-09-11T16:39:23;9.35;;;7.13;;
35907;SDS011;22003;50.320;8.054;2022-09-11T16:41:48;13.23;;;7.78;;
35907;SDS011;22003;50.320;8.054;2022-09-11T16:44:14;11.98;;;7.93;;
35907;SDS011;22003;50.320;8.054;2022-09-11T16:46:40;12.35;;;7.25;;
35907;SDS011;22003;50.320;8.054;2022-09-11T16:49:06;11.23;;;7.93;;
35907;SDS011;22003;50.320;8.054;2022-09-11T16:51:32;15.70;;;8.05;;
35907;SDS011;22003;50.320;8.054;2022-09-11T16:53:58;11.90;;;7.43;;
35907;SDS011;22003;50.320;8.054;2022-09-11T16:56:23;11.85;;;7.75;;
35907;SDS011;22003;50.320;8.054;2022-09-11T16:58:50;11.95;;;7.70;;
35907;SDS011;22003;50.320;8.054;2022-09-11T17:01:17;14.15;;;8.20;;
35907;SDS011;22003;50.320;8.054;2022-09-11T17:03:45;11.32;;;7.72;;
35907;SDS011;22003;50.320;8.054;2022-09-11T17:06:13;11.77;;;7.40;;
35907;SDS011;22003;50.320;8.054;2022-09-11T17:08:39;11.07;;;8.32;;
35907;SDS011;22003;50.320;8.054;2022-09-11T17:13:35;14.50;;;7.75;;
35907;SDS011;22003;50.320;8.054;2022-09-11T17:16:02;12.73;;;8.20;;
35907;SDS011;22003;50.320;8.054;2022-09-11T17:18:35;12.07;;;8.13;;
35907;SDS011;22003;50.320;8.054;2022-09-11T17:21:02;11.27;;;8.27;;
35907;SDS011;22003;50.320;8.054;2022-09-11T17:23:29;13.10;;;8.60;;
35907;SDS011;22003;50.320;8.054;2022-09-11T17:25:56;13.40;;;8.85;;
35907;SDS011;22003;50.320;8.054;2022-09-11T17:28:22;11.88;;;7.82;;
35907;SDS011;22003;50.320;8.054;2022-09-11T17:30:48;12.50;;;8.20;;
35907;SDS011;22003;50.320;8.054;2022-09-11T17:33:13;15.55;;;8.98;;
35907;SDS011;22003;50.320;8.054;2022-09-11T17:35:40;11.93;;;8.68;;
35907;SDS011;22003;50.320;8.054;2022-09-11T17:38:06;14.32;;;9.15;;
35907;SDS011;22003;50.320;8.054;2022-09-11T17:40:33;15.35;;;9.88;;
35907;SDS011;22003;50.320;8.054;2022-09-11T17:42:59;12.85;;;8.65;;
35907;SDS011;22003;50.320;8.054;2022-09-11T17:45:25;11.90;;;7.97;;
35907;SDS011;22003;50.320;8.054;2022-09-11T17:47:50;13.48;;;8.32;;
35907;SDS011;22003;50.320;8.054;2022-09-11T17:50:16;14.23;;;9.05;;
35907;SDS011;22003;50.320;8.054;2022-09-11T17:52:42;17.23;;;8.77;;
35907;SDS011;22003;50.320;8.054;2022-09-11T17:55:07;14.50;;;8.93;;
35907;SDS011;22003;50.320;8.054;2022-09-11T17:57:33;13.45;;;8.38;;
35907;SDS011;22003;50.320;8.054;2022-09-11T17:59:59;13.20;;;9.00;;
35907;SDS011;22003;50.320;8.054;2022-09-11T18:02:24;13.85;;;9.32;;
35907;SDS011;22003;50.320;8.054;2022-09-11T18:04:50;14.85;;;9.23;;
35907;SDS011;22003;50.320;8.054;2022-09-11T18:07:16;13.93;;;8.90;;
35907;SDS011;22003;50.320;8.054;2022-09-11T18:09:42;13.93;;;8.82;;
35907;SDS011;22003;50.320;8.054;2022-09-11T18:12:07;13.45;;;8.60;;
35907;SDS011;22003;50.320;8.054;2022-09-11T18:14:37;13.02;;;8.50;;
35907;SDS011;22003;50.320;8.054;2022-09-11T18:17:03;11.75;;;8.40;;
35907;SDS011;22003;50.320;8.054;2022-09-11T18:19:29;16.48;;;10.00;;
35907;SDS011;22003;50.320;8.054;2022-09-11T18:21:54;13.65;;;8.48;;
35907;SDS011;22003;50.320;8.054;2022-09-11T18:24:19;13.38;;;8.77;;
35907;SDS011;22003;50.320;8.054;2022-09-11T18:26:45;16.48;;;9.88;;
35907;SDS011;22003;50.320;8.054;2022-09-11T18:29:14;15.25;;;8.98;;
35907;SDS011;22003;50.320;8.054;2022-09-11T18:31:40;16.02;;;9.77;;
35907;SDS011;22003;50.320;8.054;2022-09-11T18:34:10;16.02;;;9.48;;
35907;SDS011;22003;50.320;8.054;2022-09-11T18:36:39;17.33;;;10.45;;
35907;SDS011;22003;50.320;8.054;2022-09-11T18:39:04;14.95;;;9.70;;
35907;SDS011;22003;50.320;8.054;2022-09-11T18:41:31;14.98;;;9.15;;
35907;SDS011;22003;50.320;8.054;2022-09-11T18:43:59;13.45;;;9.50;;
35907;SDS011;22003;50.320;8.054;2022-09-11T18:46:25;16.97;;;10.33;;
35907;SDS011;22003;50.320;8.054;2022-09-11T18:48:51;17.23;;;10.07;;
35907;SDS011;22003;50.320;8.054;2022-09-11T18:51:17;12.82;;;8.38;;
35907;SDS011;22003;50.320;8.054;2022-09-11T18:53:45;15.23;;;9.93;;
35907;SDS011;22003;50.320;8.054;2022-09-11T18:56:12;15.52;;;9.27;;
35907;SDS011;22003;50.320;8.054;2022-09-11T18:58:37;14.75;;;9.40;;
35907;SDS011;22003;50.320;8.054;2022-09-11T19:01:05;15.97;;;9.63;;
35907;SDS011;22003;50.320;8.054;2022-09-11T19:03:31;14.48;;;8.95;;
35907;SDS011;22003;50.320;8.054;2022-09-11T19:06:00;16.42;;;9.07;;
35907;SDS011;22003;50.320;8.054;2022-09-11T19:08:31;15.25;;;8.75;;
35907;SDS011;22003;50.320;8.054;2022-09-11T19:10:57;16.17;;;10.33;;
35907;SDS011;22003;50.320;8.054;2022-09-11T19:13:25;18.23;;;9.70;;
35907;SDS011;22003;50.320;8.054;2022-09-11T19:15:54;13.30;;;8.13;;
35907;SDS011;22003;50.320;8.054;2022-09-11T19:18:20;15.02;;;9.68;;
35907;SDS011;22003;50.320;8.054;2022-09-11T19:20:57;15.68;;;8.93;;
35907;SDS011;22003;50.320;8.054;2022-09-11T19:23:24;11.85;;;8.27;;
35907;SDS011;22003;50.320;8.054;2022-09-11T19:25:52;12.77;;;7.70;;
35907;SDS011;22003;50.320;8.054;2022-09-11T19:28:17;16.92;;;8.43;;
35907;SDS011;22003;50.320;8.054;2022-09-11T19:30:43;13.65;;;8.55;;
35907;SDS011;22003;50.320;8.054;2022-09-11T19:33:08;14.57;;;8.52;;
35907;SDS011;22003;50.320;8.054;2022-09-11T19:35:33;12.57;;;7.72;;
35907;SDS011;22003;50.320;8.054;2022-09-11T19:37:58;12.65;;;8.25;;
35907;SDS011;22003;50.320;8.054;2022-09-11T19:40:24;14.52;;;8.98;;
35907;SDS011;22003;50.320;8.054;2022-09-11T19:42:50;13.85;;;7.88;;
35907;SDS011;22003;50.320;8.054;2022-09-11T19:45:15;14.48;;;8.93;;
35907;SDS011;22003;50.320;8.054;2022-09-11T19:47:40;13.40;;;8.48;;
35907;SDS011;22003;50.320;8.054;2022-09-11T19:50:06;13.48;;;8.38;;
35907;SDS011;22003;50.320;8.054;2022-09-11T19:52:32;13.70;;;8.13;;
35907;SDS011;22003;50.320;8.054;2022-09-11T19:54:57;14.00;;;7.85;;
35907;SDS011;22003;50.320;8.054;2022-09-11T19:57:23;17.10;;;8.25;;
35907;SDS011;22003;50.320;8.054;2022-09-11T19:59:48;13.77;;;8.02;;
35907;SDS011;22003;50.320;8.054;2022-09-11T20:02:14;15.48;;;8.43;;
35907;SDS011;22003;50.320;8.054;2022-09-11T20:04:40;14.30;;;8.18;;
35907;SDS011;22003;50.320;8.054;2022-09-11T20:07:06;12.70;;;7.28;;
35907;SDS011;22003;50.320;8.054;2022-09-11T20:09:31;13.65;;;7.65;;
35907;SDS011;22003;50.320;8.054;2022-09-11T20:11:57;12.52;;;7.88;;
35907;SDS011;22003;50.320;8.054;2022-09-11T20:14:22;15.48;;;8.88;;